Observation data for Levelland on 07/17/2019      Previous  Date       Current Mesonet Observations  Soil Data  Daily Summary Page  Observations in Plain Language
KLD1 170500Z 13008KT 27/13 A3004 RMK A01 T02690127  RH  043%=      5-min Rain = 0
KLD1 170505Z 13008KT 27/13 A3004 RMK A01 T02670127  RH  043%=      5-min Rain = 0
KLD1 170510Z 13008KT 27/13 A3004 RMK A01 T02670127  RH  044%=      5-min Rain = 0
KLD1 170515Z 13007KT 27/13 A3004 RMK A01 T02670128  RH  044%=      5-min Rain = 0
KLD1 170520Z 13007KT 27/13 A3004 RMK A01 T02650130  RH  045%=      5-min Rain = 0
KLD1 170525Z 13007KT 27/13 A3004 RMK A01 T02650132  RH  046%=      5-min Rain = 0
KLD1 170530Z 13007KT 26/13 A3004 RMK A01 T02640134  RH  046%=      5-min Rain = 0
KLD1 170535Z 13008KT 26/14 A3004 RMK A01 T02640135  RH  047%=      5-min Rain = 0
KLD1 170540Z 13008KT 26/14 A3004 RMK A01 T02630136  RH  047%=      5-min Rain = 0
KLD1 170545Z 14008KT 26/14 A3004 RMK A01 T02630138  RH  048%=      5-min Rain = 0
KLD1 170550Z 14008KT 26/14 A3004 RMK A01 T02620139  RH  049%=      5-min Rain = 0
KLD1 170555Z 14008KT 26/14 A3004 RMK A01 T02620140  RH  049%=      5-min Rain = 0
KLD1 170600Z 14008KT 26/14 A3004 RMK A01 T02620141  RH  049%=      5-min Rain = 0
KLD1 170605Z 14008KT 26/14 A3004 RMK A01 T02620141  RH  050%=      5-min Rain = 0
KLD1 170610Z 14008KT 26/14 A3004 RMK A01 T02610142  RH  050%=      5-min Rain = 0
KLD1 170615Z 15007KT 26/14 A3004 RMK A01 T02600142  RH  050%=      5-min Rain = 0
KLD1 170620Z 14008KT 26/14 A3004 RMK A01 T02600142  RH  050%=      5-min Rain = 0
KLD1 170625Z 15008KT 26/14 A3004 RMK A01 T02590141  RH  050%=      5-min Rain = 0
KLD1 170630Z 15008KT 26/14 A3004 RMK A01 T02590142  RH  050%=      5-min Rain = 0
KLD1 170635Z 15008KT 26/14 A3004 RMK A01 T02580142  RH  051%=      5-min Rain = 0
KLD1 170640Z 15008KT 26/14 A3004 RMK A01 T02580143  RH  051%=      5-min Rain = 0
KLD1 170645Z 16008KT 26/14 A3004 RMK A01 T02580142  RH  051%=      5-min Rain = 0
KLD1 170650Z 16008KT 26/14 A3004 RMK A01 T02570143  RH  051%=      5-min Rain = 0
KLD1 170655Z 16008KT 26/14 A3004 RMK A01 T02560144  RH  052%=      5-min Rain = 0
KLD1 170700Z 16008KT 26/14 A3004 RMK A01 T02550144  RH  052%=      5-min Rain = 0
KLD1 170705Z 16008KT 25/15 A3004 RMK A01 T02540145  RH  053%=      5-min Rain = 0
KLD1 170710Z 16008KT 25/14 A3004 RMK A01 T02520144  RH  054%=      5-min Rain = 0
KLD1 170715Z 16008KT 25/15 A3004 RMK A01 T02510145  RH  054%=      5-min Rain = 0
KLD1 170720Z 16008KT 25/15 A3004 RMK A01 T02500145  RH  055%=      5-min Rain = 0
KLD1 170725Z 15009KT 25/15 A3003 RMK A01 T02490145  RH  055%=      5-min Rain = 0
KLD1 170730Z 15008KT 25/15 A3003 RMK A01 T02470146  RH  055%=      5-min Rain = 0
KLD1 170735Z 15009KT 25/15 A3003 RMK A01 T02460146  RH  056%=      5-min Rain = 0
KLD1 170740Z 16009KT 25/15 A3003 RMK A01 T02460147  RH  056%=      5-min Rain = 0
KLD1 170745Z 17008KT 25/15 A3004 RMK A01 T02470148  RH  056%=      5-min Rain = 0
KLD1 170750Z 18007KT 25/15 A3004 RMK A01 T02470148  RH  057%=      5-min Rain = 0
KLD1 170755Z 19007KT 25/15 A3004 RMK A01 T02470149  RH  057%=      5-min Rain = 0
KLD1 170800Z 18008KT 25/15 A3004 RMK A01 T02470149  RH  057%=      5-min Rain = 0
KLD1 170805Z 18008KT 25/15 A3004 RMK A01 T02490150  RH  057%=      5-min Rain = 0
KLD1 170810Z 18009KT 25/15 A3004 RMK A01 T02480151  RH  057%=      5-min Rain = 0
KLD1 170815Z 19008KT 25/15 A3004 RMK A01 T02480151  RH  057%=      5-min Rain = 0
KLD1 170820Z 19007KT 25/15 A3005 RMK A01 T02470151  RH  058%=      5-min Rain = 0
KLD1 170825Z 19007KT 25/15 A3005 RMK A01 T02460151  RH  058%=      5-min Rain = 0
KLD1 170830Z 19006KT 24/15 A3005 RMK A01 T02440151  RH  058%=      5-min Rain = 0
KLD1 170835Z 20006KT 24/15 A3005 RMK A01 T02430150  RH  059%=      5-min Rain = 0
KLD1 170840Z 19006KT 24/15 A3005 RMK A01 T02420150  RH  059%=      5-min Rain = 0
KLD1 170845Z 18006KT 24/15 A3005 RMK A01 T02410150  RH  059%=      5-min Rain = 0
KLD1 170850Z 19005KT 24/15 A3005 RMK A01 T02390150  RH  060%=      5-min Rain = 0
KLD1 170855Z 20005KT 24/15 A3005 RMK A01 T02370150  RH  061%=      5-min Rain = 0
KLD1 170900Z 19005KT 24/15 A3005 RMK A01 T02350150  RH  062%=      5-min Rain = 0
KLD1 170905Z 20005KT 23/15 A3005 RMK A01 T02330150  RH  062%=      5-min Rain = 0
KLD1 170910Z 22004KT 23/15 A3005 RMK A01 T02300150  RH  063%=      5-min Rain = 0
KLD1 170915Z 22005KT 23/15 A3005 RMK A01 T02270150  RH  065%=      5-min Rain = 0
KLD1 170920Z 21005KT 23/15 A3005 RMK A01 T02270151  RH  065%=      5-min Rain = 0
KLD1 170925Z 22005KT 23/15 A3005 RMK A01 T02280153  RH  065%=      5-min Rain = 0
KLD1 170930Z 22005KT 23/15 A3005 RMK A01 T02310154  RH  065%=      5-min Rain = 0
KLD1 170935Z 20005KT 23/16 A3005 RMK A01 T02320156  RH  065%=      5-min Rain = 0
KLD1 170940Z 19005KT 23/16 A3005 RMK A01 T02320156  RH  065%=      5-min Rain = 0
KLD1 170945Z 19005KT 23/16 A3005 RMK A01 T02300156  RH  066%=      5-min Rain = 0
KLD1 170950Z 20005KT 23/16 A3005 RMK A01 T02290157  RH  067%=      5-min Rain = 0
KLD1 170955Z 20005KT 23/16 A3005 RMK A01 T02290158  RH  067%=      5-min Rain = 0
KLD1 171000Z 19004KT 23/16 A3005 RMK A01 T02290158  RH  067%=      5-min Rain = 0
KLD1 171005Z 19005KT 23/16 A3005 RMK A01 T02290159  RH  068%=      5-min Rain = 0
KLD1 171010Z 18006KT 23/16 A3005 RMK A01 T02290159  RH  068%=      5-min Rain = 0
KLD1 171015Z 18006KT 23/16 A3005 RMK A01 T02280160  RH  068%=      5-min Rain = 0
KLD1 171020Z 18007KT 23/16 A3005 RMK A01 T02300161  RH  068%=      5-min Rain = 0
KLD1 171025Z 18007KT 23/16 A3004 RMK A01 T02320162  RH  068%=      5-min Rain = 0
KLD1 171030Z 17008KT 23/16 A3004 RMK A01 T02340163  RH  068%=      5-min Rain = 0
KLD1 171035Z 17007KT 24/16 A3004 RMK A01 T02350164  RH  068%=      5-min Rain = 0
KLD1 171040Z 18008KT 24/17 A3004 RMK A01 T02360166  RH  068%=      5-min Rain = 0
KLD1 171045Z 18009KT 24/17 A3005 RMK A01 T02370167  RH  068%=      5-min Rain = 0
KLD1 171050Z 17009KT 24/17 A3005 RMK A01 T02380167  RH  068%=      5-min Rain = 0
KLD1 171055Z 17008KT 24/17 A3004 RMK A01 T02380168  RH  068%=      5-min Rain = 0
KLD1 171100Z 17009KT 24/17 A3005 RMK A01 T02370168  RH  068%=      5-min Rain = 0
KLD1 171105Z 17009KT 24/17 A3005 RMK A01 T02380169  RH  069%=      5-min Rain = 0
KLD1 171110Z 17010KT 24/17 A3005 RMK A01 T02370169  RH  069%=      5-min Rain = 0
KLD1 171115Z 17009KT 24/17 A3005 RMK A01 T02370169  RH  069%=      5-min Rain = 0
KLD1 171120Z 18009KT 24/17 A3005 RMK A01 T02350169  RH  070%=      5-min Rain = 0
KLD1 171125Z 18008KT 24/17 A3005 RMK A01 T02350169  RH  070%=      5-min Rain = 0
KLD1 171130Z 18008KT 23/17 A3005 RMK A01 T02340170  RH  070%=      5-min Rain = 0
KLD1 171135Z 18009KT 23/17 A3005 RMK A01 T02330170  RH  071%=      5-min Rain = 0
KLD1 171140Z 18008KT 23/17 A3005 RMK A01 T02320170  RH  072%=      5-min Rain = 0
KLD1 171145Z 18008KT 23/17 A3005 RMK A01 T02310170  RH  072%=      5-min Rain = 0
KLD1 171150Z 17009KT 23/17 A3005 RMK A01 T02310169  RH  072%=      5-min Rain = 0
KLD1 171155Z 18009KT 23/17 A3005 RMK A01 T02310169  RH  072%=      5-min Rain = 0
KLD1 171200Z 18008KT 23/17 A3005 RMK A01 T02300169  RH  072%=      5-min Rain = 0
KLD1 171205Z 18008KT 23/17 A3005 RMK A01 T02290170  RH  073%=      5-min Rain = 0
KLD1 171210Z 18009KT 23/17 A3005 RMK A01 T02290170  RH  073%=      5-min Rain = 0
KLD1 171215Z 18010KT 23/17 A3005 RMK A01 T02300170  RH  073%=      5-min Rain = 0
KLD1 171220Z 18009KT 23/17 A3005 RMK A01 T02310170  RH  072%=      5-min Rain = 0
KLD1 171225Z 19008KT 23/17 A3006 RMK A01 T02310171  RH  072%=      5-min Rain = 0
KLD1 171230Z 19007KT 23/17 A3006 RMK A01 T02310171  RH  072%=      5-min Rain = 0
KLD1 171235Z 20007KT 23/17 A3006 RMK A01 T02330171  RH  072%=      5-min Rain = 0
KLD1 171240Z 20007KT 23/17 A3007 RMK A01 T02340172  RH  071%=      5-min Rain = 0
KLD1 171245Z 19008KT 24/17 A3007 RMK A01 T02350172  RH  071%=      5-min Rain = 0
KLD1 171250Z 18008KT 24/17 A3007 RMK A01 T02360173  RH  071%=      5-min Rain = 0
KLD1 171255Z 19008KT 24/17 A3007 RMK A01 T02380173  RH  071%=      5-min Rain = 0
KLD1 171300Z 19009KT 24/17 A3007 RMK A01 T02400173  RH  070%=      5-min Rain = 0
KLD1 171305Z 19010KT 24/17 A3007 RMK A01 T02410174  RH  070%=      5-min Rain = 0
KLD1 171310Z 19010KT 24/17 A3007 RMK A01 T02420174  RH  069%=      5-min Rain = 0
KLD1 171315Z 19010KT 24/18 A3007 RMK A01 T02440175  RH  068%=      5-min Rain = 0
KLD1 171320Z 19012G18KT 25/18 A3007 RMK A01 T02450175  RH  068%=      5-min Rain = 0
KLD1 171325Z 18012G17KT 25/18 A3007 RMK A01 T02460175  RH  068%=      5-min Rain = 0
KLD1 171330Z 18013KT 25/18 A3008 RMK A01 T02480176  RH  068%=      5-min Rain = 0
KLD1 171335Z 19014G19KT 25/18 A3008 RMK A01 T02490176  RH  067%=      5-min Rain = 0
KLD1 171340Z 18013G19KT 25/18 A3008 RMK A01 T02510176  RH  067%=      5-min Rain = 0
KLD1 171345Z 18013KT 25/18 A3008 RMK A01 T02520177  RH  066%=      5-min Rain = 0
KLD1 171350Z 18014KT 25/18 A3008 RMK A01 T02540177  RH  066%=      5-min Rain = 0
KLD1 171355Z 18015KT 25/18 A3007 RMK A01 T02540176  RH  065%=      5-min Rain = 0
KLD1 171400Z 18016KT 26/18 A3007 RMK A01 T02560177  RH  065%=      5-min Rain = 0
KLD1 171405Z 18016KT 26/18 A3007 RMK A01 T02580177  RH  064%=      5-min Rain = 0
KLD1 171410Z 18013G19KT 26/18 A3007 RMK A01 T02600178  RH  064%=      5-min Rain = 0
KLD1 171415Z 18014G19KT 26/18 A3007 RMK A01 T02620178  RH  063%=      5-min Rain = 0
KLD1 171420Z 18015G20KT 26/18 A3007 RMK A01 T02630177  RH  062%=      5-min Rain = 0
KLD1 171425Z 18015G21KT 27/18 A3008 RMK A01 T02650177  RH  062%=      5-min Rain = 0
KLD1 171430Z 19016KT 27/18 A3008 RMK A01 T02650176  RH  061%=      5-min Rain = 0
KLD1 171435Z 19015KT 27/18 A3008 RMK A01 T02650177  RH  061%=      5-min Rain = 0
KLD1 171440Z 19016KT 27/18 A3008 RMK A01 T02680176  RH  060%=      5-min Rain = 0
KLD1 171445Z 19014KT 27/18 A3008 RMK A01 T02720177  RH  059%=      5-min Rain = 0
KLD1 171450Z 20014KT 27/18 A3008 RMK A01 T02730176  RH  058%=      5-min Rain = 0
KLD1 171455Z 19014KT 28/18 A3008 RMK A01 T02750178  RH  058%=      5-min Rain = 0
KLD1 171500Z 18014G19KT 28/18 A3008 RMK A01 T02760177  RH  058%=      5-min Rain = 0
KLD1 171505Z 18015KT 27/18 A3008 RMK A01 T02740177  RH  058%=      5-min Rain = 0
KLD1 171510Z 19014KT 28/18 A3008 RMK A01 T02770179  RH  058%=      5-min Rain = 0
KLD1 171515Z 19014KT 28/18 A3008 RMK A01 T02760178  RH  058%=      5-min Rain = 0
KLD1 171520Z 18014G19KT 28/18 A3008 RMK A01 T02780178  RH  057%=      5-min Rain = 0
KLD1 171525Z 19011G16KT 28/18 A3008 RMK A01 T02840179  RH  056%=      5-min Rain = 0
KLD1 171530Z 19014KT 28/18 A3008 RMK A01 T02840177  RH  055%=      5-min Rain = 0
KLD1 171535Z 19015KT 28/18 A3008 RMK A01 T02810177  RH  056%=      5-min Rain = 0
KLD1 171540Z 19014G19KT 29/18 A3008 RMK A01 T02850177  RH  055%=      5-min Rain = 0
KLD1 171545Z 19014KT 28/18 A3008 RMK A01 T02840177  RH  055%=      5-min Rain = 0
KLD1 171550Z 18013KT 29/18 A3008 RMK A01 T02870178  RH  054%=      5-min Rain = 0
KLD1 171555Z 19015KT 29/18 A3008 RMK A01 T02880177  RH  054%=      5-min Rain = 0
KLD1 171600Z 19011G16KT 29/18 A3008 RMK A01 T02900178  RH  054%=      5-min Rain = 0
KLD1 171605Z 19013G19KT 29/18 A3008 RMK A01 T02920176  RH  052%=      5-min Rain = 0
KLD1 171610Z 18012KT 29/18 A3008 RMK A01 T02940177  RH  052%=      5-min Rain = 0
KLD1 171615Z 18012KT 29/18 A3008 RMK A01 T02930176  RH  052%=      5-min Rain = 0
KLD1 171620Z 17011G16KT 30/18 A3008 RMK A01 T02980177  RH  051%=      5-min Rain = 0
KLD1 171625Z 17013KT 30/18 A3008 RMK A01 T02990177  RH  051%=      5-min Rain = 0
KLD1 171630Z 19013KT 30/17 A3008 RMK A01 T03010172  RH  048%=      5-min Rain = 0
KLD1 171635Z 19012KT 31/17 A3008 RMK A01 T03050171  RH  047%=      5-min Rain = 0
KLD1 171640Z 19013KT 31/17 A3008 RMK A01 T03060170  RH  046%=      5-min Rain = 0
KLD1 171645Z 19012G17KT 31/17 A3008 RMK A01 T03050169  RH  046%=      5-min Rain = 0
KLD1 171650Z 17013G18KT 31/17 A3008 RMK A01 T03090169  RH  045%=      5-min Rain = 0
KLD1 171655Z 19013KT 31/17 A3008 RMK A01 T03080169  RH  046%=      5-min Rain = 0
KLD1 171700Z 18013KT 31/17 A3007 RMK A01 T03130170  RH  045%=      5-min Rain = 0
KLD1 171705Z 18013G19KT 32/17 A3007 RMK A01 T03150172  RH  045%=      5-min Rain = 0
KLD1 171710Z 16014KT 32/17 A3007 RMK A01 T03150170  RH  044%=      5-min Rain = 0
KLD1 171715Z 16012G19KT 32/17 A3007 RMK A01 T03160166  RH  043%=      5-min Rain = 0
KLD1 171720Z 17014G19KT 32/16 A3007 RMK A01 T03210162  RH  040%=      5-min Rain = 0
KLD1 171725Z 17013G18KT 32/16 A3007 RMK A01 T03200160  RH  040%=      5-min Rain = 0
KLD1 171730Z 18013G19KT 32/16 A3007 RMK A01 T03200164  RH  041%=      5-min Rain = 0
KLD1 171735Z 18013G18KT 32/16 A3006 RMK A01 T03200158  RH  039%=      5-min Rain = 0
KLD1 171740Z 17014G21KT 32/16 A3006 RMK A01 T03240156  RH  038%=      5-min Rain = 0
KLD1 171745Z 16014KT 32/15 A3006 RMK A01 T03240151  RH  037%=      5-min Rain = 0
KLD1 171750Z 17013KT 33/15 A3006 RMK A01 T03260148  RH  036%=      5-min Rain = 0
KLD1 171755Z 18015G21KT 33/14 A3006 RMK A01 T03280144  RH  034%=      5-min Rain = 0
KLD1 171800Z 18013KT 33/14 A3006 RMK A01 T03280140  RH  034%=      5-min Rain = 0
KLD1 171805Z 16016G22KT 33/14 A3006 RMK A01 T03330137  RH  032%=      5-min Rain = 0
KLD1 171810Z 17014G20KT 33/14 A3006 RMK A01 T03310140  RH  033%=      5-min Rain = 0
KLD1 171815Z 17013G20KT 33/14 A3006 RMK A01 T03340144  RH  033%=      5-min Rain = 0
KLD1 171820Z 17014G19KT 33/14 A3006 RMK A01 T03340142  RH  033%=      5-min Rain = 0
KLD1 171825Z 18013G22KT 34/14 A3006 RMK A01 T03350144  RH  033%=      5-min Rain = 0
KLD1 171830Z 16013G21KT 33/14 A3005 RMK A01 T03340140  RH  032%=      5-min Rain = 0
KLD1 171835Z 16016KT 33/14 A3005 RMK A01 T03330140  RH  033%=      5-min Rain = 0
KLD1 171840Z 16015G22KT 33/13 A3005 RMK A01 T03340130  RH  030%=      5-min Rain = 0
KLD1 171845Z 16012G20KT 34/13 A3005 RMK A01 T03390131  RH  030%=      5-min Rain = 0
KLD1 171850Z 18013G19KT 34/14 A3005 RMK A01 T03370139  RH  032%=      5-min Rain = 0
KLD1 171855Z 17011G17KT 34/14 A3005 RMK A01 T03410142  RH  032%=      5-min Rain = 0
KLD1 171900Z 17013G19KT 34/14 A3005 RMK A01 T03430141  RH  031%=      5-min Rain = 0
KLD1 171905Z 16014G19KT 34/13 A3005 RMK A01 T03410134  RH  030%=      5-min Rain = 0
KLD1 171910Z 17015G21KT 34/14 A3004 RMK A01 T03400138  RH  031%=      5-min Rain = 0
KLD1 171915Z 18014G23KT 34/14 A3004 RMK A01 T03410136  RH  030%=      5-min Rain = 0
KLD1 171920Z 17012G21KT 35/13 A3004 RMK A01 T03450133  RH  029%=      5-min Rain = 0
KLD1 171925Z 17013G20KT 34/13 A3004 RMK A01 T03420125  RH  028%=      5-min Rain = 0
KLD1 171930Z 17014G20KT 34/13 A3003 RMK A01 T03410128  RH  029%=      5-min Rain = 0
KLD1 171935Z 19012G21KT 35/13 A3003 RMK A01 T03460133  RH  029%=      5-min Rain = 0
KLD1 171940Z 18014G20KT 35/13 A3003 RMK A01 T03450134  RH  029%=      5-min Rain = 0
KLD1 171945Z 17011G16KT 35/13 A3002 RMK A01 T03450131  RH  029%=      5-min Rain = 0
KLD1 171950Z 18011G18KT 35/13 A3002 RMK A01 T03500134  RH  029%=      5-min Rain = 0
KLD1 171955Z 20013G18KT 35/13 A3002 RMK A01 T03520133  RH  028%=      5-min Rain = 0
KLD1 172000Z 17016G22KT 35/13 A3002 RMK A01 T03500134  RH  028%=      5-min Rain = 0
KLD1 172005Z 16011G18KT 35/13 A3002 RMK A01 T03460133  RH  029%=      5-min Rain = 0
KLD1 172010Z 16013G18KT 35/13 A3002 RMK A01 T03460131  RH  029%=      5-min Rain = 0
KLD1 172015Z 15014KT 34/13 A3002 RMK A01 T03390129  RH  029%=      5-min Rain = 0
KLD1 172020Z 17011G18KT 34/13 A3002 RMK A01 T03400130  RH  029%=      5-min Rain = 0
KLD1 172025Z 17009G15KT 35/13 A3001 RMK A01 T03470126  RH  027%=      5-min Rain = 0
KLD1 172030Z 16010G16KT 35/13 A3001 RMK A01 T03480127  RH  027%=      5-min Rain = 0
KLD1 172035Z 16011G19KT 35/13 A3001 RMK A01 T03470130  RH  028%=      5-min Rain = 0
KLD1 172040Z 17012G17KT 35/13 A3001 RMK A01 T03490132  RH  028%=      5-min Rain = 0
KLD1 172045Z 17010KT 35/13 A3001 RMK A01 T03520131  RH  028%=      5-min Rain = 0
KLD1 172050Z 16014G20KT 35/13 A30 RMK A01 T03500129  RH  027%=      5-min Rain = 0
KLD1 172055Z 16013G21KT 35/13 A30 RMK A01 T03510130  RH  027%=      5-min Rain = 0
KLD1 172100Z 15015G21KT 35/13 A30 RMK A01 T03520130  RH  027%=      5-min Rain = 0
KLD1 172105Z 16014G20KT 35/13 A30 RMK A01 T03500133  RH  028%=      5-min Rain = 0
KLD1 172110Z 16013G21KT 35/13 A30 RMK A01 T03490130  RH  028%=      5-min Rain = 0
KLD1 172115Z 15012KT 35/13 A30 RMK A01 T03500132  RH  028%=      5-min Rain = 0
KLD1 172120Z 16012G17KT 35/13 A30 RMK A01 T03470131  RH  028%=      5-min Rain = 0
KLD1 172125Z 17013KT 35/13 A30 RMK A01 T03490131  RH  028%=      5-min Rain = 0
KLD1 172130Z 15012KT 35/13 A30 RMK A01 T03510126  RH  027%=      5-min Rain = 0
KLD1 172135Z 16009KT 35/13 A2999 RMK A01 T03540125  RH  026%=      5-min Rain = 0
KLD1 172140Z 15013KT 35/13 A2999 RMK A01 T03510132  RH  028%=      5-min Rain = 0
KLD1 172145Z 14012G17KT 35/13 A2998 RMK A01 T03530133  RH  028%=      5-min Rain = 0
KLD1 172150Z 16013G18KT 35/13 A2998 RMK A01 T03540130  RH  027%=      5-min Rain = 0
KLD1 172155Z 18011G18KT 35/13 A2998 RMK A01 T03520126  RH  027%=      5-min Rain = 0
KLD1 172200Z 16011G16KT 35/13 A2998 RMK A01 T03510128  RH  027%=      5-min Rain = 0
KLD1 172205Z 15009G14KT 35/13 A2998 RMK A01 T03540127  RH  027%=      5-min Rain = 0
KLD1 172210Z 16012G17KT 35/12 A2998 RMK A01 T03520123  RH  026%=      5-min Rain = 0
KLD1 172215Z 16011KT 36/12 A2997 RMK A01 T03550123  RH  026%=      5-min Rain = 0
KLD1 172220Z 16011KT 35/12 A2997 RMK A01 T03530123  RH  026%=      5-min Rain = 0
KLD1 172225Z 17011G18KT 35/13 A2997 RMK A01 T03540127  RH  027%=      5-min Rain = 0
KLD1 172230Z 15011G21KT 35/12 A2997 RMK A01 T03530124  RH  026%=      5-min Rain = 0
KLD1 172235Z 15011G16KT 35/12 A2997 RMK A01 T03530124  RH  026%=      5-min Rain = 0
KLD1 172240Z 15010G18KT 35/12 A2997 RMK A01 T03530123  RH  026%=      5-min Rain = 0
KLD1 172245Z 15011G17KT 35/12 A2997 RMK A01 T03510122  RH  026%=      5-min Rain = 0
KLD1 172250Z 16012G18KT 35/12 A2997 RMK A01 T03530123  RH  026%=      5-min Rain = 0
KLD1 172255Z 16011G18KT 35/12 A2997 RMK A01 T03510122  RH  026%=      5-min Rain = 0
KLD1 172300Z 17010G15KT 35/12 A2997 RMK A01 T03500122  RH  026%=      5-min Rain = 0
KLD1 172305Z 15010KT 35/12 A2997 RMK A01 T03510123  RH  026%=      5-min Rain = 0
KLD1 172310Z 17011G17KT 35/12 A2997 RMK A01 T03530122  RH  026%=      5-min Rain = 0
KLD1 172315Z 18010G16KT 35/12 A2997 RMK A01 T03520117  RH  025%=      5-min Rain = 0
KLD1 172320Z 16012G17KT 35/13 A2996 RMK A01 T03530129  RH  027%=      5-min Rain = 0
KLD1 172325Z 15011G17KT 35/13 A2996 RMK A01 T03500134  RH  028%=      5-min Rain = 0
KLD1 172330Z 16013G18KT 35/13 A2997 RMK A01 T03510133  RH  028%=      5-min Rain = 0
KLD1 172335Z 15011G17KT 35/13 A2997 RMK A01 T03470134  RH  029%=      5-min Rain = 0
KLD1 172340Z 15011G16KT 35/14 A2996 RMK A01 T03460136  RH  029%=      5-min Rain = 0
KLD1 172345Z 15015KT 35/14 A2996 RMK A01 T03450136  RH  030%=      5-min Rain = 0
KLD1 172350Z 14013G20KT 34/14 A2996 RMK A01 T03420135  RH  030%=      5-min Rain = 0
KLD1 172355Z 14011G17KT 35/14 A2996 RMK A01 T03450138  RH  030%=      5-min Rain = 0
KLD1 180000Z 15012G17KT 34/14 A2996 RMK A01 T03440135  RH  030%=      5-min Rain = 0
KLD1 180005Z 15012KT 34/13 A2995 RMK A01 T03430134  RH  030%=      5-min Rain = 0
KLD1 180010Z 15014G19KT 34/13 A2995 RMK A01 T03410134  RH  030%=      5-min Rain = 0
KLD1 180015Z 15015KT 34/13 A2996 RMK A01 T03390133  RH  030%=      5-min Rain = 0
KLD1 180020Z 15014KT 34/13 A2996 RMK A01 T03370134  RH  031%=      5-min Rain = 0
KLD1 180025Z 15014G20KT 34/13 A2996 RMK A01 T03370134  RH  031%=      5-min Rain = 0
KLD1 180030Z 15015KT 34/13 A2996 RMK A01 T03350134  RH  031%=      5-min Rain = 0
KLD1 180035Z 14012KT 33/13 A2995 RMK A01 T03320134  RH  032%=      5-min Rain = 0
KLD1 180040Z 14012KT 33/13 A2995 RMK A01 T03290133  RH  032%=      5-min Rain = 0
KLD1 180045Z 15013G18KT 33/13 A2995 RMK A01 T03270132  RH  032%=      5-min Rain = 0
KLD1 180050Z 15014KT 33/13 A2996 RMK A01 T03250130  RH  032%=      5-min Rain = 0
KLD1 180055Z 14013KT 32/13 A2996 RMK A01 T03240130  RH  032%=      5-min Rain = 0
KLD1 180100Z 15012KT 32/13 A2996 RMK A01 T03230131  RH  033%=      5-min Rain = 0
KLD1 180105Z 15012KT 32/13 A2996 RMK A01 T03210132  RH  033%=      5-min Rain = 0
KLD1 180110Z 15011KT 32/13 A2996 RMK A01 T03190133  RH  033%=      5-min Rain = 0
KLD1 180115Z 15011KT 32/13 A2996 RMK A01 T03180134  RH  034%=      5-min Rain = 0
KLD1 180120Z 15011KT 32/14 A2996 RMK A01 T03170135  RH  034%=      5-min Rain = 0
KLD1 180125Z 15011KT 32/14 A2996 RMK A01 T03160135  RH  035%=      5-min Rain = 0
KLD1 180130Z 15011KT 32/14 A2996 RMK A01 T03150136  RH  035%=      5-min Rain = 0
KLD1 180135Z 15011KT 31/14 A2996 RMK A01 T03140137  RH  035%=      5-min Rain = 0
KLD1 180140Z 15011KT 31/14 A2996 RMK A01 T03130137  RH  036%=      5-min Rain = 0
KLD1 180145Z 14010KT 31/14 A2996 RMK A01 T03110137  RH  036%=      5-min Rain = 0
KLD1 180150Z 14010KT 31/14 A2996 RMK A01 T03090137  RH  037%=      5-min Rain = 0
KLD1 180155Z 14009KT 31/14 A2996 RMK A01 T03080137  RH  037%=      5-min Rain = 0
KLD1 180200Z 14009G15KT 31/14 A2996 RMK A01 T03070138  RH  037%=      5-min Rain = 0
KLD1 180205Z 14010KT 31/14 A2996 RMK A01 T03070139  RH  037%=      5-min Rain = 0
KLD1 180210Z 14009KT 31/14 A2997 RMK A01 T03050139  RH  038%=      5-min Rain = 0
KLD1 180215Z 14010KT 30/14 A2997 RMK A01 T03040140  RH  038%=      5-min Rain = 0
KLD1 180220Z 14011KT 30/14 A2997 RMK A01 T03040140  RH  038%=      5-min Rain = 0
KLD1 180225Z 14011KT 30/14 A2997 RMK A01 T03030141  RH  039%=      5-min Rain = 0
KLD1 180230Z 14011KT 30/14 A2997 RMK A01 T03030142  RH  039%=      5-min Rain = 0
KLD1 180235Z 14011KT 30/14 A2997 RMK A01 T03020142  RH  039%=      5-min Rain = 0
KLD1 180240Z 14012KT 30/14 A2997 RMK A01 T03020143  RH  040%=      5-min Rain = 0
KLD1 180245Z 14012KT 30/15 A2997 RMK A01 T03020145  RH  040%=      5-min Rain = 0
KLD1 180250Z 14013G18KT 30/15 A2997 RMK A01 T03010146  RH  041%=      5-min Rain = 0
KLD1 180255Z 14014KT 30/15 A2997 RMK A01 T03010148  RH  041%=      5-min Rain = 0
KLD1 180300Z 14012G17KT 30/15 A2997 RMK A01 T03000149  RH  042%=      5-min Rain = 0
KLD1 180305Z 15014KT 30/15 A2998 RMK A01 T03000150  RH  042%=      5-min Rain = 0
KLD1 180310Z 15013G19KT 30/15 A2998 RMK A01 T02990151  RH  043%=      5-min Rain = 0
KLD1 180315Z 15016KT 30/15 A2998 RMK A01 T02990153  RH  043%=      5-min Rain = 0
KLD1 180320Z 15014G19KT 30/16 A2999 RMK A01 T02980155  RH  044%=      5-min Rain = 0
KLD1 180325Z 15015KT 30/16 A2999 RMK A01 T02970156  RH  044%=      5-min Rain = 0
KLD1 180330Z 15014G19KT 30/16 A2999 RMK A01 T02960157  RH  045%=      5-min Rain = 0
KLD1 180335Z 15014G19KT 30/16 A2999 RMK A01 T02960157  RH  045%=      5-min Rain = 0
KLD1 180340Z 15013KT 30/16 A2999 RMK A01 T02950158  RH  046%=      5-min Rain = 0
KLD1 180345Z 15014G21KT 29/16 A2998 RMK A01 T02940157  RH  046%=      5-min Rain = 0
KLD1 180350Z 15016KT 29/16 A2998 RMK A01 T02940157  RH  046%=      5-min Rain = 0
KLD1 180355Z 15016G22KT 29/16 A2998 RMK A01 T02930157  RH  046%=      5-min Rain = 0
KLD1 180400Z 15015G21KT 29/16 A2999 RMK A01 T02920157  RH  046%=      5-min Rain = 0
KLD1 180405Z 15016KT 29/16 A2998 RMK A01 T02920157  RH  046%=      5-min Rain = 0
KLD1 180410Z 16015G21KT 29/16 A2998 RMK A01 T02910157  RH  046%=      5-min Rain = 0
KLD1 180415Z 16014KT 29/16 A2998 RMK A01 T02890157  RH  047%=      5-min Rain = 0
KLD1 180420Z 16014G19KT 29/16 A2998 RMK A01 T02880157  RH  047%=      5-min Rain = 0
KLD1 180425Z 17011KT 29/16 A2998 RMK A01 T02850157  RH  048%=      5-min Rain = 0
KLD1 180430Z 19013G18KT 28/16 A2998 RMK A01 T02840155  RH  047%=      5-min Rain = 0
KLD1 180435Z 20014G21KT 28/15 A2998 RMK A01 T02820153  RH  048%=      5-min Rain = 0
KLD1 180440Z 19012G17KT 28/15 A2998 RMK A01 T02770153  RH  049%=      5-min Rain = 0
KLD1 180445Z 19013KT 27/15 A2998 RMK A01 T02730154  RH  050%=      5-min Rain = 0
KLD1 180450Z 19012KT 27/15 A2998 RMK A01 T02710154  RH  051%=      5-min Rain = 0
KLD1 180455Z 18016G22KT 27/15 A2998 RMK A01 T02690152  RH  051%=      5-min Rain = 0

Page generated in 0.0253 seconds.